Time;durP1;ratioP1;P1;durP2;ratioP2;P2;SDS_P1;SDS_P2;PMS_P1;PMS_P2;Temp;Humidity;BMP_temperature;BMP_pressure;BME280_temperature;BME280_humidity;BME280_pressure;Samples;Min_cycle;Max_cycle;Signal;HPM_P1;HPM_P2
2023/03/24 00:01:09;;;;;;;19.17;12.10;;;;;;;8.65;56.10;95047.69;5023956;28;20399;-74
2023/03/24 00:03:35;;;;;;;22.20;13.50;;;;;;;8.62;56.09;95051.28;5007647;28;20504;-74
2023/03/24 00:06:03;;;;;;;18.27;12.77;;;;;;;8.61;56.18;95056.00;5023007;28;20475;-74
2023/03/24 00:08:33;;;;;;;19.10;13.13;;;;;;;8.59;56.15;95052.88;5024834;28;20100;-75
2023/03/24 00:11:05;;;;;;;22.63;13.00;;;;;;;8.55;56.33;95054.94;5024033;28;20056;-74
2023/03/24 00:13:37;;;;;;;19.63;12.60;;;;;;;8.55;56.44;95054.94;5024396;28;20030;-74
2023/03/24 00:16:05;;;;;;;19.30;13.45;;;;;;;8.46;56.27;95052.75;5023398;28;20026;-74
2023/03/24 00:18:31;;;;;;;18.65;12.88;;;;;;;8.39;56.33;95047.41;5023922;28;20553;-74
2023/03/24 00:20:57;;;;;;;19.42;12.95;;;;;;;8.44;56.64;95055.13;5024081;28;20091;-74
2023/03/24 00:23:31;;;;;;;18.33;12.85;;;;;;;8.40;56.83;95053.66;5022666;28;20026;-75
2023/03/24 00:26:11;;;;;;;19.33;12.93;;;;;;;8.40;56.69;95050.91;5024734;28;20486;-75
2023/03/24 00:28:37;;;;;;;18.88;12.98;;;;;;;8.36;56.68;95050.19;5006855;28;20112;-75
2023/03/24 00:31:05;;;;;;;22.08;13.02;;;;;;;8.36;56.92;95055.69;5007380;28;20018;-75
2023/03/24 00:33:31;;;;;;;19.85;12.65;;;;;;;8.34;56.83;95049.81;5006871;28;20584;-75
2023/03/24 00:35:58;;;;;;;21.15;12.45;;;;;;;8.32;56.95;95054.97;5023068;28;20033;-74
2023/03/24 00:38:23;;;;;;;17.30;12.05;;;;;;;8.30;56.83;95046.38;5023634;28;20044;-74
2023/03/24 00:40:50;;;;;;;19.38;12.57;;;;;;;8.26;56.82;95043.72;5022256;28;20026;-74
2023/03/24 00:43:16;;;;;;;18.38;11.77;;;;;;;8.27;56.91;95050.72;5025178;28;20151;-74
2023/03/24 00:45:45;;;;;;;19.33;12.25;;;;;;;8.22;56.89;95037.50;5023800;28;20021;-74
2023/03/24 00:48:16;;;;;;;18.38;11.57;;;;;;;8.20;56.98;95043.41;5023468;28;20025;-74
2023/03/24 00:50:51;;;;;;;15.68;11.52;;;;;;;8.13;56.95;95051.75;5022745;28;20157;-74
2023/03/24 00:53:18;;;;;;;18.10;11.82;;;;;;;8.08;56.90;95045.97;5022597;28;20587;-74
2023/03/24 00:55:46;;;;;;;21.17;12.93;;;;;;;8.07;57.03;95044.44;5023530;28;20535;-74
2023/03/24 00:58:17;;;;;;;19.63;12.65;;;;;;;8.05;57.22;95042.13;5005820;28;20137;-74
2023/03/24 01:00:47;;;;;;;17.67;11.88;;;;;;;8.02;57.37;95050.38;5007282;28;20484;-74
2023/03/24 01:03:13;;;;;;;19.25;12.13;;;;;;;7.97;57.23;95046.16;5021816;28;20466;-75
2023/03/24 01:05:40;;;;;;;18.98;11.65;;;;;;;7.96;57.26;95042.63;5023258;28;20022;-76
2023/03/24 01:08:06;;;;;;;19.70;11.65;;;;;;;7.90;57.28;95044.31;5006234;28;20045;-74
2023/03/24 01:10:41;;;;;;;19.60;12.32;;;;;;;7.88;57.23;95043.97;5022352;28;20025;-74
2023/03/24 01:13:07;;;;;;;16.77;11.75;;;;;;;7.84;57.43;95037.75;5023804;28;20031;-75
2023/03/24 01:15:33;;;;;;;23.75;12.57;;;;;;;7.80;57.30;95048.03;5021875;28;20021;-75
2023/03/24 01:18:02;;;;;;;16.95;11.20;;;;;;;7.80;57.51;95045.28;5024814;28;20409;-74
2023/03/24 01:20:32;;;;;;;19.60;12.25;;;;;;;7.79;57.42;95042.94;5021850;28;20136;-76
2023/03/24 01:22:59;;;;;;;21.48;12.07;;;;;;;7.75;57.48;95036.78;5024342;28;20037;-74
2023/03/24 01:25:24;;;;;;;18.85;11.68;;;;;;;7.70;57.64;95030.56;5023728;28;20029;-75
2023/03/24 01:27:51;;;;;;;22.27;12.98;;;;;;;7.69;57.86;95029.03;5022936;28;20083;-75
2023/03/24 01:30:19;;;;;;;19.23;11.68;;;;;;;7.68;57.63;95030.22;5022859;28;20102;-74
2023/03/24 01:32:45;;;;;;;19.10;12.45;;;;;;;7.64;57.61;95026.75;5022031;28;20022;-74
2023/03/24 01:35:10;;;;;;;19.42;12.45;;;;;;;7.64;57.60;95032.25;5025071;28;20033;-74
2023/03/24 01:37:37;;;;;;;17.70;12.05;;;;;;;7.63;57.59;95027.19;5021587;28;20051;-75
2023/03/24 01:40:10;;;;;;;19.70;12.73;;;;;;;7.57;57.96;95024.16;5024765;28;20029;-75
2023/03/24 01:42:37;;;;;;;22.87;13.30;;;;;;;7.52;57.85;95032.81;5022004;28;20499;-75
2023/03/24 01:45:40;;;;;;;22.15;12.98;;;;;;;7.46;57.78;95029.00;5022407;28;20423;-74
2023/03/24 01:48:16;;;;;;;17.52;11.80;;;;;;;7.39;57.99;95020.91;5024804;28;20462;-74
2023/03/24 01:50:45;;;;;;;18.88;12.70;;;;;;;7.37;57.71;95028.75;5021314;28;20084;-74
2023/03/24 01:53:11;;;;;;;18.98;13.20;;;;;;;7.35;57.96;95025.66;5006337;28;20021;-74
2023/03/24 01:55:37;;;;;;;19.98;12.65;;;;;;;7.35;57.99;95026.44;5005255;28;20111;-74
2023/03/24 01:58:03;;;;;;;17.70;12.57;;;;;;;7.35;58.16;95020.19;5005813;28;20739;-74
2023/03/24 02:00:29;;;;;;;20.58;12.80;;;;;;;7.30;58.13;95024.16;5006210;28;20026;-74
2023/03/24 02:03:02;;;;;;;20.83;13.13;;;;;;;7.32;58.13;95031.94;5021692;28;20045;-74
2023/03/24 02:05:30;;;;;;;20.92;12.85;;;;;;;7.29;58.34;95032.78;5022947;28;20082;-74
2023/03/24 02:08:21;;;;;;;22.58;13.50;;;;;;;7.26;58.37;95036.34;5021536;28;20029;-74
2023/03/24 02:10:47;;;;;;;16.23;12.73;;;;;;;7.23;58.12;95040.69;5023093;28;20029;-74
2023/03/24 02:13:13;;;;;;;17.50;12.15;;;;;;;7.21;58.29;95034.06;5026198;28;20044;-75
2023/03/24 02:16:07;;;;;;;16.48;11.68;;;;;;;7.19;58.34;95034.47;5026703;28;20037;-75
2023/03/24 02:19:04;;;;;;;21.40;13.02;;;;;;;7.22;58.22;95033.63;5020881;28;20413;-74
2023/03/24 02:21:51;;;;;;;17.42;11.98;;;;;;;7.22;58.73;95043.81;5025340;28;20075;-74
2023/03/24 02:24:34;;;;;;;17.83;11.73;;;;;;;7.16;59.44;95036.06;5026938;28;20033;-74
2023/03/24 02:27:22;;;;;;;19.50;13.32;;;;;;;7.17;58.56;95036.88;5028132;28;20034;-74
2023/03/24 02:29:47;;;;;;;17.42;11.05;;;;;;;7.12;58.49;95040.06;5026398;28;20392;-74
2023/03/24 02:32:37;;;;;;;18.38;13.18;;;;;;;7.12;58.94;95040.06;5025887;28;20504;-74
2023/03/24 02:35:15;;;;;;;16.73;12.25;;;;;;;7.06;59.09;95041.69;5026194;28;20025;-75
2023/03/24 02:37:46;;;;;;;17.08;11.75;;;;;;;7.03;59.46;95035.09;5024364;28;20033;-74
2023/03/24 02:40:28;;;;;;;19.50;12.38;;;;;;;7.03;60.21;95029.63;5027954;28;20112;-74
2023/03/24 02:43:06;;;;;;;19.40;12.88;;;;;;;7.06;60.27;95023.34;5024742;28;20025;-74
2023/03/24 02:45:36;;;;;;;20.08;13.15;;;;;;;7.03;60.92;95018.69;5025700;28;20091;-74
2023/03/24 02:48:43;;;;;;;21.88;13.55;;;;;;;7.06;61.00;95006.16;5025700;28;20032;-75
2023/03/24 02:51:26;;;;;;;21.40;13.52;;;;;;;7.05;62.08;95002.63;5018429;28;20037;-74
2023/03/24 02:54:12;;;;;;;20.67;14.40;;;;;;;7.01;61.81;95012.88;5026848;28;20550;-74
2023/03/24 02:56:45;;;;;;;24.92;13.55;;;;;;;7.04;61.70;95008.53;5026521;28;20053;-73
2023/03/24 02:59:19;;;;;;;;;;;;;;;7.08;61.36;95009.25;5026717;28;20026;-74
2023/03/24 03:02:07;;;;;;;22.13;14.00;;;;;;;7.07;61.71;94994.81;5027143;28;19939;-74
2023/03/24 03:04:37;;;;;;;23.58;14.48;;;;;;;7.09;61.72;95000.63;5024606;28;20030;-75
2023/03/24 03:07:08;;;;;;;20.52;13.30;;;;;;;7.12;61.26;95005.28;5025374;28;20033;-74
2023/03/24 03:09:45;;;;;;;19.05;13.02;;;;;;;7.17;60.95;94999.34;5009440;28;20033;-74
2023/03/24 03:12:11;;;;;;;20.17;13.02;;;;;;;7.19;61.03;95002.44;5024270;28;20030;-74
2023/03/24 03:14:41;;;;;;;22.80;13.85;;;;;;;7.17;60.76;94998.59;5025689;28;20346;-75
2023/03/24 03:17:11;;;;;;;22.50;14.25;;;;;;;7.18;60.39;94989.19;5007434;28;20037;-74
2023/03/24 03:19:40;;;;;;;20.30;13.82;;;;;;;7.25;60.95;94994.53;5025220;28;20030;-74
2023/03/24 03:22:12;;;;;;;24.00;13.25;;;;;;;7.28;60.59;95003.88;5024068;28;20037;-74
2023/03/24 03:24:40;;;;;;;20.58;13.75;;;;;;;7.27;60.46;94996.84;5024642;28;20033;-74
2023/03/24 03:27:30;;;;;;;21.52;13.70;;;;;;;7.29;60.09;95002.72;5025290;28;20509;-74
2023/03/24 03:30:06;;;;;;;19.08;12.02;;;;;;;7.29;59.70;95002.72;5024702;28;20045;-74
2023/03/24 03:32:34;;;;;;;18.42;13.35;;;;;;;7.28;59.84;95003.88;5008548;28;20034;-74
2023/03/24 03:35:07;;;;;;;19.55;12.65;;;;;;;7.25;59.23;95004.72;5023939;28;20029;-75
2023/03/24 03:37:45;;;;;;;19.50;13.27;;;;;;;7.18;58.98;94998.16;5024355;28;20080;-74
2023/03/24 03:40:15;;;;;;;21.83;13.75;;;;;;;7.14;59.52;94991.19;5026738;28;20060;-74
2023/03/24 03:42:41;;;;;;;21.10;14.70;;;;;;;7.15;59.46;94987.28;5023639;28;20029;-75
2023/03/24 03:45:08;;;;;;;22.35;13.25;;;;;;;7.21;59.30;94993.81;5008619;28;20026;-74
2023/03/24 03:47:34;;;;;;;21.83;13.85;;;;;;;7.13;59.67;95006.81;5024998;28;20546;-75
2023/03/24 03:50:00;;;;;;;19.85;12.80;;;;;;;7.11;59.20;95003.75;5024342;28;20026;-75
2023/03/24 03:52:26;;;;;;;22.05;12.55;;;;;;;7.14;59.37;95008.38;5023712;28;20029;-75
2023/03/24 03:54:52;;;;;;;23.13;14.27;;;;;;;7.11;59.36;95009.22;5023869;28;20078;-75
2023/03/24 03:57:18;;;;;;;21.73;12.98;;;;;;;7.12;59.36;95012.72;5024319;28;20057;-75
2023/03/24 03:59:44;;;;;;;22.95;13.65;;;;;;;7.12;59.39;95018.94;5006909;28;20403;-75
2023/03/24 04:02:18;;;;;;;23.33;13.55;;;;;;;7.15;59.41;95011.88;5024794;28;20483;-73
2023/03/24 04:04:58;;;;;;;21.65;13.70;;;;;;;7.11;59.68;95011.94;5024610;28;20033;-74
2023/03/24 04:08:04;;;;;;;23.85;14.65;;;;;;;7.11;59.99;95014.69;5025702;28;20029;-74
2023/03/24 04:10:45;;;;;;;21.38;14.05;;;;;;;7.06;59.93;95009.66;5024644;28;20088;-74
2023/03/24 04:13:38;;;;;;;21.65;14.00;;;;;;;7.00;60.16;95003.13;5006191;28;20061;-74
2023/03/24 04:16:10;;;;;;;23.57;14.73;;;;;;;7.05;60.39;95013.56;5023900;28;20051;-73
2023/03/24 04:18:38;;;;;;;22.95;16.58;;;;;;;7.07;60.17;95022.16;5025212;28;20288;-76
2023/03/24 04:21:27;;;;;;;26.23;16.23;;;;;;;7.03;60.36;95018.69;5024328;28;20040;-74
2023/03/24 04:24:10;;;;;;;24.67;15.90;;;;;;;7.02;60.22;95019.09;5008293;28;20056;-74
2023/03/24 04:26:53;;;;;;;26.00;16.57;;;;;;;7.01;60.26;95015.59;5023097;28;20033;-74
2023/03/24 04:29:41;;;;;;;29.55;16.15;;;;;;;6.98;60.08;95021.09;5023535;28;20777;-74
2023/03/24 04:32:18;;;;;;;24.50;15.73;;;;;;;6.91;60.08;95003.63;5025278;28;20029;-73
2023/03/24 04:34:49;;;;;;;24.50;15.43;;;;;;;6.93;59.97;95012.16;5021605;28;20033;-74
2023/03/24 04:37:21;;;;;;;28.02;14.45;;;;;;;6.90;59.75;95021.19;5024028;28;20412;-75
2023/03/24 04:39:48;;;;;;;26.38;15.00;;;;;;;6.90;59.80;95020.44;5022956;28;20048;-75
2023/03/24 04:42:21;;;;;;;21.00;14.95;;;;;;;6.87;59.79;95024.75;5023343;28;20036;-74
2023/03/24 04:44:50;;;;;;;29.73;15.23;;;;;;;6.87;59.74;95023.97;5023659;28;20034;-75
2023/03/24 04:47:19;;;;;;;30.00;16.17;;;;;;;6.81;59.55;95025.63;5006788;28;20489;-75
2023/03/24 04:49:44;;;;;;;25.25;14.98;;;;;;;6.85;59.75;95040.00;5024212;28;20025;-76
2023/03/24 04:52:09;;;;;;;23.33;13.73;;;;;;;6.82;59.81;95041.59;5023273;28;20111;-75
2023/03/24 04:54:35;;;;;;;25.02;15.07;;;;;;;6.80;60.08;95048.66;5023877;28;20025;-75
2023/03/24 04:57:00;;;;;;;24.48;14.57;;;;;;;6.79;60.12;95044.38;5022414;28;20207;-76
2023/03/24 04:59:31;;;;;;;27.70;15.85;;;;;;;6.82;60.33;95051.75;5023346;28;20063;-76
2023/03/24 05:01:56;;;;;;;26.75;15.75;;;;;;;6.80;60.46;95056.84;5024697;28;20025;-75
2023/03/24 05:04:24;;;;;;;33.30;18.48;;;;;;;6.73;60.74;95048.75;5022587;28;20025;-75
2023/03/24 05:06:49;;;;;;;35.92;19.75;;;;;;;6.77;60.86;95047.53;5024049;28;20037;-75
2023/03/24 05:09:20;;;;;;;38.15;20.20;;;;;;;6.79;60.86;95047.13;5005564;28;20024;-74
2023/03/24 05:11:46;;;;;;;39.67;21.58;;;;;;;6.76;60.60;95056.13;5023819;28;20045;-75
2023/03/24 05:14:11;;;;;;;34.72;21.10;;;;;;;6.82;61.18;95055.25;5023539;28;20033;-75
2023/03/24 05:16:37;;;;;;;36.22;21.05;;;;;;;6.83;60.94;95056.06;5024909;28;20048;-76
2023/03/24 05:19:03;;;;;;;35.42;21.17;;;;;;;6.87;61.11;95063.00;5023919;28;20044;-75
2023/03/24 05:21:28;;;;;;;31.38;20.00;;;;;;;6.90;61.15;95061.41;5022737;28;20491;-76
2023/03/24 05:23:54;;;;;;;35.50;19.95;;;;;;;6.91;60.94;95065.69;5023513;28;20037;-75
2023/03/24 05:26:19;;;;;;;35.05;19.58;;;;;;;6.99;60.87;95072.63;5022009;28;20057;-76
2023/03/24 05:28:45;;;;;;;31.95;18.48;;;;;;;7.02;60.82;95060.88;5024082;28;20042;-76
2023/03/24 05:31:10;;;;;;;37.85;19.85;;;;;;;7.10;60.84;95058.81;5021684;28;20051;-76
2023/03/24 05:33:36;;;;;;;34.35;19.75;;;;;;;7.09;60.69;95066.25;5023591;28;20026;-76
2023/03/24 05:36:01;;;;;;;35.72;22.60;;;;;;;7.12;60.80;95061.91;5022530;28;20025;-75
2023/03/24 05:38:28;;;;;;;40.28;21.35;;;;;;;7.13;60.91;95063.47;5022526;28;20034;-76
2023/03/24 05:40:57;;;;;;;42.00;20.77;;;;;;;7.15;61.07;95066.56;5006502;28;20128;-75
2023/03/24 05:43:23;;;;;;;40.50;21.75;;;;;;;7.17;61.14;95075.13;5023337;28;20041;-75
2023/03/24 05:45:48;;;;;;;33.55;22.02;;;;;;;7.23;61.21;95068.03;5024128;28;20385;-75
2023/03/24 05:48:14;;;;;;;36.97;20.92;;;;;;;7.30;61.20;95073.38;5025466;28;20022;-75
2023/03/24 05:50:39;;;;;;;36.33;21.88;;;;;;;7.34;61.21;95062.38;5028389;28;20021;-75
2023/03/24 05:53:05;;;;;;;38.03;20.35;;;;;;;7.44;61.32;95069.66;5025872;28;20033;-76
2023/03/24 05:55:30;;;;;;;31.70;19.77;;;;;;;7.50;61.24;95067.25;5026441;28;20523;-76
2023/03/24 05:57:56;;;;;;;35.30;20.63;;;;;;;7.57;61.21;95078.06;5027731;28;20143;-74
2023/03/24 06:00:22;;;;;;;37.00;20.80;;;;;;;7.62;61.17;95083.06;5026140;28;20018;-75
2023/03/24 06:02:47;;;;;;;35.38;21.65;;;;;;;7.72;60.80;95077.44;5026855;28;20500;-75
2023/03/24 06:05:13;;;;;;;32.25;19.98;;;;;;;7.78;60.52;95074.25;5026520;28;20152;-75
2023/03/24 06:07:41;;;;;;;36.50;22.27;;;;;;;7.87;60.83;95074.50;5028714;28;20026;-75
2023/03/24 06:10:10;;;;;;;31.95;21.38;;;;;;;7.91;60.73;95072.44;5025467;28;20048;-74
2023/03/24 06:12:36;;;;;;;40.38;22.10;;;;;;;8.00;60.64;95072.69;5026549;28;20380;-75
2023/03/24 06:15:02;;;;;;;37.03;22.05;;;;;;;8.05;60.64;95076.94;5025726;28;20068;-75
2023/03/24 06:17:29;;;;;;;32.42;21.35;;;;;;;8.11;60.47;95075.28;5025912;28;20547;-75
2023/03/24 06:20:01;;;;;;;41.08;24.27;;;;;;;8.16;60.69;95080.28;5026412;28;20029;-76
2023/03/24 06:22:27;;;;;;;43.20;24.30;;;;;;;8.24;60.58;95078.94;5025051;28;20441;-76
2023/03/24 06:24:55;;;;;;;41.17;26.52;;;;;;;8.33;60.40;95081.16;5026859;28;20493;-76
2023/03/24 06:27:24;;;;;;;41.63;26.58;;;;;;;8.38;60.24;95088.91;5024966;28;20029;-76
2023/03/24 06:29:50;;;;;;;39.90;27.15;;;;;;;8.40;60.19;95081.03;5026659;28;20025;-76
2023/03/24 06:32:18;;;;;;;41.53;25.85;;;;;;;8.42;60.34;95092.34;5025598;28;20299;-76
2023/03/24 06:34:43;;;;;;;41.45;23.88;;;;;;;8.57;59.55;95087.41;5025943;28;20423;-74
2023/03/24 06:37:09;;;;;;;43.35;22.75;;;;;;;8.69;59.76;95089.50;5025724;28;20033;-75
2023/03/24 06:39:34;;;;;;;44.22;22.60;;;;;;;8.77;59.30;95080.75;5024860;28;20466;-75
2023/03/24 06:42:00;;;;;;;37.30;23.42;;;;;;;8.91;58.79;95087.13;5027670;28;20017;-75
2023/03/24 06:44:25;;;;;;;39.30;22.98;;;;;;;8.98;58.63;95089.72;5024443;28;20040;-77
2023/03/24 06:46:51;;;;;;;37.22;23.55;;;;;;;9.10;58.59;95086.34;5009902;28;20472;-75
2023/03/24 06:49:16;;;;;;;40.10;22.92;;;;;;;9.27;58.59;95095.38;5008433;28;20116;-77
2023/03/24 06:51:41;;;;;;;34.00;22.55;;;;;;;9.35;58.07;95083.09;5025504;28;20043;-75
2023/03/24 06:54:07;;;;;;;36.40;22.70;;;;;;;9.36;58.31;95086.59;5024807;28;20044;-75
2023/03/24 06:56:33;;;;;;;38.88;24.02;;;;;;;9.51;57.57;95085.06;5026052;28;20160;-74
2023/03/24 06:58:59;;;;;;;35.90;22.02;;;;;;;9.63;57.63;95087.13;5024696;28;20033;-74
2023/03/24 07:01:24;;;;;;;33.50;22.63;;;;;;;9.75;57.18;95086.50;5007636;28;20041;-74
2023/03/24 07:03:50;;;;;;;34.78;21.48;;;;;;;9.83;57.15;95090.59;5027361;28;20210;-73
2023/03/24 07:06:17;;;;;;;31.98;21.25;;;;;;;9.92;56.92;95091.97;5024127;28;20025;-73
2023/03/24 07:08:43;;;;;;;31.88;21.05;;;;;;;10.02;56.55;95104.69;5026674;28;20053;-73
2023/03/24 07:11:09;;;;;;;37.50;22.60;;;;;;;10.09;56.22;95102.56;5024640;28;20063;-73
2023/03/24 07:13:35;;;;;;;39.17;22.95;;;;;;;10.15;56.41;95105.56;5024895;28;20045;-74
2023/03/24 07:16:01;;;;;;;34.28;22.58;;;;;;;10.27;55.90;95109.63;5008519;28;20060;-75
2023/03/24 07:18:26;;;;;;;29.35;21.33;;;;;;;10.39;55.94;95102.66;5025461;28;20033;-73
2023/03/24 07:20:53;;;;;;;39.42;22.77;;;;;;;10.51;55.85;95102.72;5025212;28;20033;-74
2023/03/24 07:23:19;;;;;;;30.15;19.38;;;;;;;10.57;55.69;95108.47;5025327;28;20031;-74
2023/03/24 07:25:44;;;;;;;32.28;21.75;;;;;;;10.69;55.27;95106.97;5025428;28;20025;-74
2023/03/24 07:28:10;;;;;;;30.95;20.45;;;;;;;10.76;55.24;95104.78;5024062;28;20022;-73
2023/03/24 07:30:36;;;;;;;36.58;21.27;;;;;;;10.85;55.22;95098.69;5024798;28;20025;-73
2023/03/24 07:33:05;;;;;;;30.88;20.75;;;;;;;10.99;54.77;95103.00;5024445;28;20052;-74
2023/03/24 07:35:31;;;;;;;30.33;20.85;;;;;;;11.08;55.06;95106.69;5024005;28;20099;-73
2023/03/24 07:37:57;;;;;;;31.05;19.30;;;;;;;11.25;54.13;95103.88;5026301;28;20029;-74
2023/03/24 07:40:23;;;;;;;27.17;19.55;;;;;;;11.45;53.32;95093.44;5025122;28;20029;-74
2023/03/24 07:42:49;;;;;;;27.65;19.98;;;;;;;11.56;52.93;95098.63;5024915;28;20407;-74
2023/03/24 07:45:14;;;;;;;29.73;18.83;;;;;;;11.67;52.80;95096.31;5025550;28;20025;-75
2023/03/24 07:47:42;;;;;;;30.98;19.77;;;;;;;11.81;52.47;95098.66;5024903;28;20495;-77
2023/03/24 07:50:09;;;;;;;28.00;19.58;;;;;;;11.93;52.16;95095.16;5023490;28;20273;-73
2023/03/24 07:52:39;;;;;;;26.73;19.55;;;;;;;11.99;51.98;95095.38;5025651;28;20022;-74
2023/03/24 07:55:07;;;;;;;31.38;20.55;;;;;;;12.23;51.53;95093.00;5024166;28;20079;-74
2023/03/24 07:57:36;;;;;;;28.73;20.33;;;;;;;12.43;50.94;95088.00;5023658;28;20030;-74
2023/03/24 08:00:08;;;;;;;30.48;20.55;;;;;;;12.62;50.25;95086.19;5026510;28;20488;-74
2023/03/24 08:02:33;;;;;;;32.33;20.98;;;;;;;12.64;49.80;95085.75;5023075;28;20065;-74
2023/03/24 08:04:58;;;;;;;28.45;18.88;;;;;;;12.83;49.63;95081.91;5024248;28;20116;-74
2023/03/24 08:07:24;;;;;;;30.75;19.27;;;;;;;13.05;49.15;95072.88;5025286;28;20330;-74
2023/03/24 08:09:49;;;;;;;30.30;19.90;;;;;;;13.27;48.47;95070.91;5025237;28;20498;-74
2023/03/24 08:12:15;;;;;;;28.95;19.42;;;;;;;13.37;48.24;95078.03;5025664;28;20026;-74
2023/03/24 08:14:40;;;;;;;30.02;18.83;;;;;;;13.56;47.97;95076.13;5023190;28;20034;-74
2023/03/24 08:17:05;;;;;;;29.60;18.08;;;;;;;13.65;47.32;95070.66;5025649;28;20029;-74
2023/03/24 08:19:31;;;;;;;26.42;17.30;;;;;;;13.95;46.56;95068.31;5006495;28;20025;-74
2023/03/24 08:21:56;;;;;;;28.13;17.38;;;;;;;14.22;45.75;95073.91;5025751;28;20033;-74
2023/03/24 08:24:22;;;;;;;26.95;17.25;;;;;;;14.41;45.56;95063.66;5022794;28;20412;-74
2023/03/24 08:26:47;;;;;;;24.50;18.05;;;;;;;14.58;45.16;95055.88;5025346;28;20047;-74
2023/03/24 08:29:12;;;;;;;27.33;18.60;;;;;;;14.86;44.64;95059.41;5023275;28;20029;-72
2023/03/24 08:31:38;;;;;;;25.88;17.77;;;;;;;15.13;43.48;95064.13;5023424;28;20459;-72
2023/03/24 08:34:05;;;;;;;27.85;18.48;;;;;;;15.32;43.60;95053.81;5024241;28;20104;-73
2023/03/24 08:36:31;;;;;;;27.30;19.30;;;;;;;15.60;43.16;95055.28;5022752;28;20094;-73
2023/03/24 08:38:56;;;;;;;25.48;18.95;;;;;;;15.83;42.21;95051.06;5007493;28;20487;-75
2023/03/24 08:41:45;;;;;;;31.90;19.13;;;;;;;16.24;41.66;95047.94;5022535;28;20026;-73
2023/03/24 08:44:10;;;;;;;26.88;19.02;;;;;;;16.56;41.08;95043.56;5023374;28;20045;-73
2023/03/24 08:46:36;;;;;;;27.83;17.27;;;;;;;16.87;39.61;95043.97;5006972;28;20121;-73
2023/03/24 08:49:01;;;;;;;22.25;15.43;;;;;;;17.20;39.29;95048.59;5006376;28;20169;-73
2023/03/24 08:51:27;;;;;;;21.20;15.00;;;;;;;17.61;38.26;95038.47;5023565;28;20100;-73
2023/03/24 08:53:54;;;;;;;23.30;15.27;;;;;;;17.94;37.81;95032.69;5022374;28;20116;-73
2023/03/24 08:56:20;;;;;;;22.23;15.73;;;;;;;18.20;36.76;95029.28;5025040;28;20056;-73
2023/03/24 08:58:50;;;;;;;23.67;15.05;;;;;;;18.49;36.23;95020.03;5004806;28;20021;-75
2023/03/24 09:01:19;;;;;;;18.63;14.85;;;;;;;18.92;35.66;95026.66;5023556;28;20033;-74
2023/03/24 09:03:45;;;;;;;19.92;14.88;;;;;;;19.37;34.88;95019.50;5022577;28;20083;-74
2023/03/24 09:06:10;;;;;;;27.67;15.63;;;;;;;19.68;34.35;95023.63;5022711;28;20026;-74
2023/03/24 09:08:36;;;;;;;23.50;15.07;;;;;;;19.98;33.53;95012.94;5024424;28;20041;-73
2023/03/24 09:11:02;;;;;;;28.42;14.45;;;;;;;20.35;33.46;95015.69;5022351;28;20101;-75
2023/03/24 09:13:27;;;;;;;22.63;14.35;;;;;;;20.71;31.95;95001.44;5007114;28;20194;-73
2023/03/24 09:15:58;;;;;;;19.63;15.15;;;;;;;20.97;31.88;95004.81;5021918;28;20506;-73
2023/03/24 09:18:23;;;;;;;18.27;13.18;;;;;;;21.30;30.88;95003.41;5007473;28;20029;-73
2023/03/24 09:20:49;;;;;;;21.45;14.07;;;;;;;21.65;30.79;95000.88;5023069;28;20037;-75
2023/03/24 09:23:14;;;;;;;21.73;15.18;;;;;;;21.98;30.70;95002.16;5006361;28;20396;-73
2023/03/24 09:25:40;;;;;;;22.50;14.05;;;;;;;22.31;29.20;94995.75;5024210;28;20511;-73
2023/03/24 09:28:07;;;;;;;18.65;13.80;;;;;;;22.65;28.73;94990.03;5022079;28;20638;-73
2023/03/24 09:30:33;;;;;;;18.65;14.23;;;;;;;23.07;28.50;94988.09;5024624;28;20030;-74
2023/03/24 09:32:58;;;;;;;16.75;13.30;;;;;;;23.43;27.89;94984.03;5021741;28;20036;-74
2023/03/24 09:35:26;;;;;;;35.13;20.17;;;;;;;23.80;27.76;94988.38;5023791;28;20032;-74
2023/03/24 09:37:52;;;;;;;22.27;15.98;;;;;;;24.01;27.21;94988.69;5023200;28;20108;-74
2023/03/24 09:40:21;;;;;;;23.02;15.35;;;;;;;24.25;26.85;94983.09;5024655;28;20152;-74
2023/03/24 09:42:53;;;;;;;20.50;14.25;;;;;;;24.53;26.56;94991.25;5022368;28;20068;-74
2023/03/24 09:45:20;;;;;;;20.40;14.57;;;;;;;24.87;26.02;94976.78;5022203;28;20410;-75
2023/03/24 09:47:56;;;;;;;20.98;13.95;;;;;;;25.27;25.29;94980.63;5006702;28;20026;-74
2023/03/24 09:50:45;;;;;;;16.08;12.77;;;;;;;25.71;24.47;94977.66;5021620;28;20410;-74
2023/03/24 09:53:28;;;;;;;21.17;14.27;;;;;;;26.11;24.47;94964.47;5022853;28;20029;-73
2023/03/24 09:55:54;;;;;;;20.75;15.38;;;;;;;26.58;23.65;94961.06;5023788;28;20049;-74
2023/03/24 09:58:19;;;;;;;17.98;13.40;;;;;;;27.13;22.69;94955.59;5005687;28;20447;-74
2023/03/24 10:00:45;;;;;;;17.83;12.73;;;;;;;27.69;21.73;94960.69;5006551;28;20037;-74
2023/03/24 10:03:21;;;;;;;17.27;12.63;;;;;;;28.31;21.21;94951.41;5021525;28;20395;-72
2023/03/24 10:05:54;;;;;;;20.70;13.30;;;;;;;28.97;20.56;94953.00;5023421;28;20026;-73
2023/03/24 10:08:42;;;;;;;19.77;12.73;;;;;;;29.80;19.47;94948.88;5021753;28;20053;-73
2023/03/24 10:11:32;;;;;;;16.10;11.30;;;;;;;30.88;17.93;94952.44;5022137;28;20036;-73
2023/03/24 10:14:27;;;;;;;13.18;10.57;;;;;;;31.81;17.05;94950.69;5024983;28;20061;-73
2023/03/24 10:17:07;;;;;;;13.70;10.80;;;;;;;33.25;16.09;94954.25;5017838;28;20043;-73
2023/03/24 10:19:33;;;;;;;11.38;9.77;;;;;;;34.63;14.67;94948.63;5022583;28;20108;-73
2023/03/24 10:22:09;;;;;;;13.02;9.50;;;;;;;35.72;13.67;94947.41;5023709;28;20471;-73
2023/03/24 10:24:41;;;;;;;13.45;10.25;;;;;;;36.64;12.57;94946.00;5023201;28;20017;-73
2023/03/24 10:27:15;;;;;;;10.93;8.73;;;;;;;37.73;11.89;94948.88;5024266;28;20025;-73
2023/03/24 10:29:42;;;;;;;10.95;8.27;;;;;;;38.69;11.30;94954.84;5023140;28;20083;-74
2023/03/24 10:32:20;;;;;;;14.27;8.40;;;;;;;39.70;10.76;94942.06;5022562;28;20032;-74
2023/03/24 10:34:49;;;;;;;10.82;8.80;;;;;;;40.50;10.59;94943.53;5025779;28;20108;-74
2023/03/24 10:37:16;;;;;;;13.00;8.27;;;;;;;41.28;9.71;94939.56;5025410;28;20017;-73
2023/03/24 10:39:42;;;;;;;9.88;7.20;;;;;;;41.88;9.27;94933.19;5026319;28;20025;-74
2023/03/24 10:42:20;;;;;;;12.35;7.40;;;;;;;42.48;8.96;94941.69;5023147;28;20036;-73
2023/03/24 10:44:47;;;;;;;8.93;6.78;;;;;;;42.68;8.11;94934.69;5026575;28;20045;-71
2023/03/24 10:47:13;;;;;;;7.18;6.32;;;;;;;43.39;7.70;94927.56;5023580;28;20048;-74
2023/03/24 10:49:51;;;;;;;8.02;6.20;;;;;;;44.09;7.86;94928.19;5025920;28;20029;-73
2023/03/24 10:52:17;;;;;;;8.95;6.13;;;;;;;44.48;7.16;94927.53;5025216;28;20033;-75
2023/03/24 10:54:56;;;;;;;10.18;6.20;;;;;;;44.62;7.51;94919.38;5026600;28;20037;-73
2023/03/24 10:57:22;;;;;;;8.02;5.32;;;;;;;45.08;6.98;94924.59;5025464;28;20168;-73
2023/03/24 10:59:59;;;;;;;9.27;5.03;;;;;;;45.03;6.78;94921.56;5025663;28;20104;-73
2023/03/24 11:02:31;;;;;;;6.60;4.68;;;;;;;45.43;6.60;94920.75;5026907;28;20021;-73
2023/03/24 11:05:09;;;;;;;9.60;5.03;;;;;;;45.29;6.56;94920.97;5025190;28;20109;-73
2023/03/24 11:07:37;;;;;;;6.95;4.88;;;;;;;46.13;6.08;94915.00;5026039;28;20037;-73
2023/03/24 11:10:07;;;;;;;6.32;4.43;;;;;;;46.54;5.48;94908.94;5026118;28;20033;-73
2023/03/24 11:12:40;;;;;;;6.85;4.07;;;;;;;47.06;5.71;94911.84;5024088;28;20519;-73
2023/03/24 11:15:16;;;;;;;5.68;4.15;;;;;;;47.33;5.42;94912.53;5009427;28;20456;-74
2023/03/24 11:17:42;;;;;;;8.48;4.18;;;;;;;47.68;5.00;94908.31;5024548;28;20025;-73
2023/03/24 11:20:32;;;;;;;5.65;3.70;;;;;;;48.22;4.91;94893.53;5025294;28;20053;-73
2023/03/24 11:23:18;;;;;;;5.85;3.42;;;;;;;48.57;4.68;94895.00;4980337;28;20100;-73
2023/03/24 11:25:48;;;;;;;5.93;3.42;;;;;;;48.92;4.53;94881.09;5024067;28;20036;-74
2023/03/24 11:28:16;;;;;;;4.32;3.35;;;;;;;49.09;4.45;94879.97;5025486;28;20075;-74
2023/03/24 11:30:49;;;;;;;6.70;4.65;;;;;;;48.96;4.51;94875.34;5024167;28;20033;-73
2023/03/24 11:33:40;;;;;;;6.30;2.90;;;;;;;48.77;4.35;94870.63;5024872;28;20125;-73
2023/03/24 11:36:32;;;;;;;3.83;3.15;;;;;;;48.14;4.90;94867.88;5007344;28;20041;-73
2023/03/24 11:39:01;;;;;;;4.70;2.92;;;;;;;48.10;4.70;94861.97;4983164;28;20052;-74